Airfield :







YOU CAN JOIN US ON...

 
LOGIN :

Register | Disclaimer

   EN    FR    IT 

 









Legend :    VFR   Marginal VFR   IFR   Intensive IFR   Very Intensive IFR
Visi :
Ceiling :
>= 8 km
>= 3000ft
5 to 8 km
1000 to 3000 ft
1500m to 5 km
500 to 1000 ft
800 to 1500m
200 to 500 ft
< 800m
< 200 ft
Symbols :   Thunderstorms  Fog  Heavy snow  Heavy precipitations  Wind > 20 kt







- Airport Elevation : 577 ft


KVSF - Hartness State (Springfield)

CURRENT METAR :
  • 221354Z AUTO 02007KT 350V070 10SM CLR 17/09 A3013 RMK AO2 SLP205 T01720089

EXPIRED METARs :
  • 221254Z AUTO VRB05KT 10SM SCT060 14/09 A3014 RMK AO2 SLP208 T01440089
  • 221154Z AUTO 00000KT 10SM CLR 14/09 A3014 RMK AO2 SLP209 T01390089 10139 20083 53007

TAF N/A
KZBW FIR / North America



MET'MAP, your aeronautical weather chart ! - Copyright ORBIFLY December 2007 - Disclaimer

ORBIFLY MET'MAP TEAM :

Programming & Development : Alexandra Zaïnal
Concept & Development : Baudouin d'Aumeries
Co-Development & Prog : Marc-Olivier Méhu
Technical & hardware support : Manuel Goepfert

Contact : metmap@orbifly.com




SOURCES & CREDITS :

   NOAA